createdAt,value
2023-02-21T00:14:00.252Z,2.50
2023-02-21T00:20:00.133Z,2.50
2023-02-21T00:26:20.042Z,2.60
2023-02-21T00:32:39.994Z,2.50
2023-02-21T00:38:59.925Z,3.10
2023-02-21T00:44:40.091Z,2.00
2023-02-21T00:50:00.138Z,2.10
2023-02-21T00:55:20.409Z,2.30
2023-02-21T01:00:42.592Z,2.10
2023-02-21T01:06:02.357Z,2.50
2023-02-21T01:11:22.896Z,2.40
2023-02-21T01:16:46.266Z,3.10
2023-02-21T01:22:06.880Z,2.40
2023-02-21T01:27:26.998Z,2.40
2023-02-21T01:32:47.114Z,2.20
2023-02-21T01:38:07.212Z,2.40
2023-02-21T01:43:35.989Z,2.60
2023-02-21T01:48:55.996Z,2.50
2023-02-21T01:54:16.553Z,2.40
2023-02-21T01:59:40.635Z,2.50
2023-02-21T02:05:01.671Z,2.50
2023-02-21T02:10:22.147Z,2.30
2023-02-21T02:15:42.510Z,2.80
2023-02-21T02:21:22.826Z,2.70
2023-02-21T02:26:45.854Z,2.90
2023-02-21T02:32:21.697Z,2.50
2023-02-21T02:37:46.036Z,2.90
2023-02-21T02:43:07.247Z,3.10
2023-02-21T02:48:23.056Z,3.00
2023-02-21T02:53:28.411Z,2.50
2023-02-21T02:58:41.778Z,2.90
2023-02-21T03:04:05.441Z,2.60
2023-02-21T03:09:18.678Z,2.60
2023-02-21T03:14:24.902Z,2.30
2023-02-21T03:19:34.102Z,2.40
2023-02-21T03:24:39.958Z,2.70
2023-02-21T03:29:41.646Z,2.30
2023-02-21T03:34:44.031Z,2.20
2023-02-21T03:39:47.655Z,2.50
2023-02-21T03:44:50.182Z,2.40
2023-02-21T03:50:03.067Z,2.70
2023-02-21T03:55:07.959Z,2.40
2023-02-21T04:00:13.380Z,2.60
2023-02-21T04:05:17.143Z,2.50
2023-02-21T04:11:18.765Z,2.60
2023-02-21T04:17:40.060Z,2.00
2023-02-21T04:24:03.466Z,2.40
2023-02-21T04:30:26.568Z,2.40
2023-02-21T04:36:48.542Z,2.50
2023-02-21T04:42:20.629Z,2.90
2023-02-21T04:47:22.010Z,2.20
2023-02-21T04:52:23.394Z,2.00
2023-02-21T04:58:25.790Z,2.70
2023-02-21T05:04:48.431Z,2.50
2023-02-21T05:10:11.222Z,2.50
2023-02-21T05:15:13.403Z,2.80
2023-02-21T05:20:14.758Z,2.90
2023-02-21T05:25:18.011Z,2.70
2023-02-21T05:31:19.600Z,2.90
2023-02-21T05:36:41.697Z,2.50
2023-02-21T05:41:48.001Z,2.60
2023-02-21T05:46:49.274Z,2.50
2023-02-21T05:51:50.533Z,2.80
2023-02-21T05:56:52.599Z,2.90
2023-02-21T06:01:53.962Z,3.00
2023-02-21T06:07:00.434Z,2.80
2023-02-21T06:12:04.167Z,3.20
2023-02-21T06:17:05.505Z,2.90
2023-02-21T06:22:06.967Z,2.80
2023-02-21T06:27:08.252Z,2.70
2023-02-21T06:32:09.516Z,3.20
2023-02-21T06:37:10.844Z,2.90
2023-02-21T06:42:14.392Z,3.10
2023-02-21T06:47:16.935Z,3.10
2023-02-21T06:52:18.453Z,2.30
2023-02-21T06:57:20.042Z,2.80
2023-02-21T07:02:21.371Z,3.20
2023-02-21T07:07:22.967Z,2.90
2023-02-21T07:12:24.487Z,3.20
2023-02-21T07:17:25.934Z,2.90
2023-02-21T07:22:27.863Z,3.00
2023-02-21T07:27:29.334Z,2.30
2023-02-21T07:32:30.447Z,2.50
2023-02-21T07:37:31.872Z,2.70
2023-02-21T07:42:33.616Z,2.00
2023-02-21T07:47:35.639Z,2.30
2023-02-21T07:52:36.873Z,2.80
2023-02-21T07:57:38.456Z,2.30
2023-02-21T08:02:40.148Z,2.30
2023-02-21T08:07:41.714Z,2.90
2023-02-21T08:12:43.097Z,2.30
2023-02-21T08:17:54.204Z,2.40
2023-02-21T08:22:56.477Z,2.40
2023-02-21T08:27:58.296Z,2.50
2023-02-21T08:32:59.829Z,2.30
2023-02-21T08:38:03.385Z,2.40
2023-02-21T08:43:05.501Z,2.30
2023-02-21T08:48:06.844Z,2.40
2023-02-21T08:53:15.571Z,2.40
2023-02-21T08:58:17.020Z,2.20
2023-02-21T09:03:18.639Z,2.90
2023-02-21T09:08:22.011Z,3.00
2023-02-21T09:13:29.584Z,3.30
2023-02-21T09:18:31.714Z,3.40
2023-02-21T09:23:32.929Z,3.90
2023-02-21T09:28:34.447Z,4.00
2023-02-21T09:33:41.307Z,3.30
2023-02-21T09:38:42.645Z,3.00
2023-02-21T09:43:48.137Z,3.10
2023-02-21T09:48:49.958Z,4.10
2023-02-21T09:53:55.561Z,3.90
2023-02-21T09:58:58.500Z,3.60
2023-02-21T10:04:18.440Z,3.00
2023-02-21T10:09:44.761Z,3.00
2023-02-21T10:15:04.569Z,2.30
2023-02-21T10:20:22.114Z,3.20
2023-02-21T10:25:45.173Z,2.80
2023-02-21T10:30:49.288Z,2.60
2023-02-21T10:35:54.372Z,2.80
2023-02-21T10:40:58.141Z,3.00
2023-02-21T10:46:10.949Z,2.70
2023-02-21T10:51:16.093Z,3.00
2023-02-21T10:56:18.102Z,2.50
2023-02-21T11:01:43.561Z,2.60
2023-02-21T11:06:48.869Z,2.50
2023-02-21T11:12:19.150Z,2.80
2023-02-21T11:17:25.140Z,2.90
2023-02-21T11:22:43.545Z,3.10
2023-02-21T11:27:57.610Z,2.90
2023-02-21T11:33:04.254Z,3.50
2023-02-21T11:38:29.508Z,3.00
2023-02-21T11:43:32.866Z,3.20
2023-02-21T11:48:44.416Z,3.20
2023-02-21T11:53:46.146Z,2.80
2023-02-21T11:59:35.598Z,2.80
2023-02-21T12:04:51.772Z,2.80
2023-02-21T12:10:02.253Z,2.90
2023-02-21T12:15:19.441Z,2.90
2023-02-21T12:20:54.053Z,2.80
2023-02-21T12:26:22.970Z,3.00
2023-02-21T12:31:35.433Z,3.20
2023-02-21T12:36:58.289Z,4.30
2023-02-21T12:42:25.551Z,3.50
2023-02-21T12:47:36.138Z,3.40
2023-02-21T12:53:40.581Z,2.80
2023-02-21T12:59:32.254Z,3.40
2023-02-21T13:04:56.400Z,2.80
2023-02-21T13:10:05.050Z,2.70
2023-02-21T13:15:21.594Z,3.20
2023-02-21T13:20:25.488Z,3.50
2023-02-21T13:25:30.173Z,3.60
2023-02-21T13:31:37.503Z,3.00
2023-02-21T13:38:04.351Z,3.20
2023-02-21T13:44:25.464Z,3.00
2023-02-21T13:49:55.288Z,3.30
2023-02-21T13:55:10.290Z,3.80
2023-02-21T14:00:20.657Z,3.70
2023-02-21T14:05:22.742Z,4.10
2023-02-21T14:10:47.140Z,3.50
2023-02-21T14:15:55.991Z,3.80
2023-02-21T14:20:58.886Z,4.10
2023-02-21T14:26:02.367Z,3.80
2023-02-21T14:31:03.962Z,3.10
2023-02-21T14:36:14.506Z,3.10
2023-02-21T14:41:37.005Z,3.50
2023-02-21T14:47:06.370Z,4.60
2023-02-21T14:52:41.921Z,3.40
2023-02-21T14:58:01.659Z,5.30
2023-02-21T15:03:09.366Z,5.40
2023-02-21T15:08:16.399Z,4.80
2023-02-21T15:13:23.722Z,4.10
2023-02-21T15:18:31.689Z,4.10
2023-02-21T15:23:34.002Z,4.40
2023-02-21T15:28:35.252Z,4.60
2023-02-21T15:33:39.161Z,4.70
2023-02-21T15:38:48.471Z,4.50
2023-02-21T15:43:57.103Z,4.80
2023-02-21T15:49:03.437Z,4.40
2023-02-21T15:54:16.887Z,4.10
2023-02-21T15:59:29.444Z,5.40
2023-02-21T16:04:36.259Z,6.00
2023-02-21T16:15:04.983Z,4.10
2023-02-21T16:20:21.904Z,4.40
2023-02-21T16:25:24.843Z,3.50
2023-02-21T16:30:35.082Z,4.20
2023-02-21T16:35:36.762Z,3.70
2023-02-21T16:40:38.212Z,4.00
2023-02-21T16:45:42.068Z,4.80
2023-02-21T16:50:46.827Z,4.60
2023-02-21T16:55:50.108Z,4.70
2023-02-21T17:00:53.338Z,4.70
2023-02-21T17:33:34.662Z,6.20
2023-02-21T17:38:40.471Z,7.00
2023-02-21T17:43:45.243Z,7.20
2023-02-21T18:07:54.465Z,7.90
2023-02-21T18:12:57.071Z,7.30
2023-02-21T18:18:06.972Z,7.90
2023-02-21T18:23:09.708Z,6.20
2023-02-21T18:28:11.779Z,7.70
2023-02-21T18:33:14.541Z,8.00
2023-02-21T18:38:16.749Z,7.20
2023-02-21T18:43:29.017Z,9.60
2023-02-21T18:48:30.999Z,8.10
2023-02-21T18:53:33.270Z,9.90
2023-02-21T18:58:36.965Z,10.70
2023-02-21T19:03:39.146Z,10.80
2023-02-21T19:08:41.219Z,10.90
2023-02-21T19:13:50.539Z,12.50
2023-02-21T19:18:57.068Z,6.60
2023-02-21T19:23:59.292Z,7.50
2023-02-21T19:29:03.707Z,4.90
2023-02-21T19:34:06.100Z,6.50
2023-02-21T19:39:09.937Z,6.50
2023-02-21T19:44:12.475Z,7.50
2023-02-21T19:49:22.109Z,7.20
2023-02-21T19:54:25.289Z,7.00
2023-02-21T19:59:29.494Z,7.20
2023-02-21T20:04:41.598Z,8.60
2023-02-21T20:09:46.462Z,7.70
2023-02-21T20:14:50.843Z,7.60
2023-02-21T20:19:55.157Z,9.00
2023-02-21T20:24:58.733Z,9.40
2023-02-21T20:30:02.417Z,9.10
2023-02-21T20:35:05.731Z,10.40
2023-02-21T20:40:11.330Z,9.60
2023-02-21T20:45:13.457Z,10.40
2023-02-21T20:50:20.368Z,9.60
2023-02-21T20:55:22.647Z,9.80
2023-02-21T21:00:30.631Z,12.40
2023-02-21T21:06:27.138Z,12.20
2023-02-21T21:11:43.094Z,13.00
2023-02-21T21:16:45.909Z,17.70
2023-02-21T21:21:48.022Z,19.30
2023-02-21T21:26:58.903Z,18.00
2023-02-21T21:32:01.004Z,16.80
2023-02-21T21:37:03.986Z,20.60
2023-02-21T21:42:09.666Z,20.40
2023-02-21T21:48:11.415Z,17.60
2023-02-21T21:54:33.193Z,17.50
2023-02-21T21:59:55.124Z,14.70
2023-02-21T22:04:58.140Z,11.50
2023-02-21T22:10:02.681Z,13.30
2023-02-21T22:15:06.083Z,13.30
2023-02-21T22:20:17.497Z,15.00
2023-02-21T22:25:21.114Z,12.50
2023-02-21T22:30:23.231Z,13.70
2023-02-21T22:35:25.326Z,14.50
2023-02-21T22:40:28.301Z,13.50
2023-02-21T22:45:33.422Z,14.10
2023-02-21T22:50:39.712Z,16.00
2023-02-21T22:55:41.708Z,13.20
2023-02-21T23:00:43.663Z,14.90
2023-02-21T23:05:48.239Z,14.80
2023-02-21T23:10:51.777Z,13.70
2023-02-21T23:15:56.220Z,15.10
2023-02-21T23:20:58.451Z,13.80
2023-02-21T23:26:00.406Z,14.70
2023-02-21T23:31:02.456Z,14.30
2023-02-21T23:36:05.003Z,14.00
2023-02-21T23:41:10.637Z,14.10
2023-02-21T23:46:20.138Z,16.60
2023-02-21T23:51:26.526Z,13.60
2023-02-21T23:56:28.684Z,12.20
